createdAt,value
2022-10-28T00:01:28.231Z,11.13
2022-10-28T00:03:58.740Z,11.80
2022-10-28T00:06:33.415Z,11.07
2022-10-28T00:09:01.418Z,10.52
2022-10-28T00:11:33.599Z,10.47
2022-10-28T00:14:07.066Z,10.48
2022-10-28T00:16:37.719Z,10.32
2022-10-28T00:19:08.375Z,10.05
2022-10-28T00:21:39.183Z,9.75
2022-10-28T00:24:08.785Z,11.20
2022-10-28T00:26:39.531Z,10.40
2022-10-28T00:29:16.122Z,12.15
2022-10-28T00:31:44.572Z,10.20
2022-10-28T00:34:18.592Z,11.85
2022-10-28T00:36:48.101Z,11.32
2022-10-28T00:39:22.876Z,11.27
2022-10-28T00:41:55.480Z,9.75
2022-10-28T00:44:57.085Z,10.93
2022-10-28T00:47:33.919Z,10.25
2022-10-28T00:50:14.582Z,10.63
2022-10-28T00:52:44.525Z,10.65
2022-10-28T00:55:16.136Z,11.10
2022-10-28T00:57:45.154Z,10.20
2022-10-28T01:00:14.227Z,9.77
2022-10-28T01:05:22.238Z,10.23
2022-10-28T01:07:53.410Z,10.43
2022-10-28T01:10:28.882Z,10.60
2022-10-28T01:13:17.119Z,10.95
2022-10-28T01:16:11.361Z,10.85
2022-10-28T01:19:45.763Z,9.55
2022-10-28T01:22:55.674Z,9.32
2022-10-28T01:26:00.704Z,9.05
2022-10-28T01:29:12.557Z,10.20
2022-10-28T01:32:07.783Z,11.48
2022-10-28T01:35:09.499Z,10.68
2022-10-28T01:38:14.767Z,10.95
2022-10-28T01:41:28.154Z,11.48
2022-10-28T01:44:26.655Z,13.15
2022-10-28T01:47:11.758Z,12.50
2022-10-28T01:50:26.775Z,10.93
2022-10-28T01:53:00.379Z,11.90
2022-10-28T01:55:42.045Z,11.70
2022-10-28T01:58:15.233Z,13.27
2022-10-28T02:00:45.429Z,11.27
2022-10-28T02:03:13.058Z,12.98
2022-10-28T02:05:46.272Z,12.77
2022-10-28T02:08:46.588Z,12.40
2022-10-28T02:11:41.915Z,12.40
2022-10-28T02:14:17.465Z,12.63
2022-10-28T02:17:08.854Z,13.98
2022-10-28T02:20:00.196Z,13.48
2022-10-28T02:22:46.227Z,12.85
2022-10-28T02:25:46.213Z,14.68
2022-10-28T02:28:29.570Z,13.90
2022-10-28T02:31:22.887Z,13.88
2022-10-28T02:33:57.353Z,12.90
2022-10-28T02:36:27.464Z,13.25
2022-10-28T02:38:58.714Z,13.85
2022-10-28T02:41:44.552Z,13.07
2022-10-28T02:44:18.777Z,12.65
2022-10-28T02:46:50.406Z,13.32
2022-10-28T02:49:18.420Z,12.80
2022-10-28T02:52:03.505Z,12.57
2022-10-28T02:54:45.902Z,12.35
2022-10-28T02:57:24.898Z,12.23
2022-10-28T03:02:26.868Z,12.23
2022-10-28T03:04:54.755Z,13.30
2022-10-28T03:07:22.433Z,10.77
2022-10-28T03:09:50.323Z,12.05
2022-10-28T03:12:18.083Z,11.55
2022-10-28T03:14:45.889Z,12.48
2022-10-28T03:17:13.453Z,13.82
2022-10-28T03:19:41.213Z,12.93
2022-10-28T03:22:08.849Z,11.27
2022-10-28T03:24:36.559Z,12.32
2022-10-28T03:27:04.335Z,12.00
2022-10-28T03:29:32.090Z,12.57
2022-10-28T03:31:59.604Z,14.07
2022-10-28T03:34:27.343Z,13.30
2022-10-28T03:36:54.976Z,14.15
2022-10-28T03:39:22.766Z,14.20
2022-10-28T03:41:50.244Z,13.02
2022-10-28T03:44:18.008Z,13.18
2022-10-28T03:46:45.546Z,13.25
2022-10-28T03:49:13.242Z,12.57
2022-10-28T03:51:40.713Z,13.63
2022-10-28T03:54:08.516Z,13.45
2022-10-28T03:56:35.991Z,13.82
2022-10-28T03:59:03.903Z,14.77
2022-10-28T04:01:31.515Z,13.57
2022-10-28T04:03:59.375Z,15.23
2022-10-28T04:06:26.852Z,13.85
2022-10-28T04:08:54.667Z,15.30
2022-10-28T04:11:22.164Z,15.63
2022-10-28T04:13:50.125Z,14.80
2022-10-28T04:16:17.624Z,15.88
2022-10-28T04:18:45.438Z,15.57
2022-10-28T04:21:13.096Z,16.63
2022-10-28T04:23:40.851Z,16.60
2022-10-28T04:26:08.340Z,16.70
2022-10-28T04:28:36.113Z,17.50
2022-10-28T04:31:04.058Z,16.85
2022-10-28T04:33:31.793Z,15.52
2022-10-28T04:35:59.293Z,16.80
2022-10-28T04:38:27.020Z,16.92
2022-10-28T04:40:54.681Z,16.40
2022-10-28T04:43:22.455Z,16.25
2022-10-28T04:45:50.019Z,16.50
2022-10-28T04:48:17.795Z,15.73
2022-10-28T04:50:45.733Z,14.95
2022-10-28T04:53:14.107Z,16.83
2022-10-28T04:55:41.570Z,16.13
2022-10-28T04:58:10.202Z,15.48
2022-10-28T05:00:37.750Z,15.93
2022-10-28T05:03:05.545Z,14.70
2022-10-28T05:05:33.357Z,14.70
2022-10-28T05:08:01.909Z,14.00
2022-10-28T05:10:31.425Z,16.00
2022-10-28T05:12:59.223Z,16.90
2022-10-28T05:15:26.916Z,17.00
2022-10-28T05:17:55.127Z,16.38
2022-10-28T05:20:23.931Z,15.82
2022-10-28T05:22:55.333Z,16.55
2022-10-28T05:25:23.881Z,16.73
2022-10-28T05:27:52.349Z,16.63
2022-10-28T05:30:20.378Z,17.23
2022-10-28T05:32:50.360Z,17.70
2022-10-28T05:35:20.500Z,16.27
2022-10-28T05:37:48.311Z,18.90
2022-10-28T05:40:15.877Z,29.50
2022-10-28T05:42:44.455Z,20.35
2022-10-28T05:45:12.938Z,20.52
2022-10-28T05:47:45.890Z,20.17
2022-10-28T05:50:15.577Z,21.75
2022-10-28T05:52:51.903Z,24.13
2022-10-28T05:55:21.481Z,26.30
2022-10-28T05:57:51.706Z,26.02
2022-10-28T06:00:23.306Z,28.08
2022-10-28T06:02:51.650Z,28.25
2022-10-28T06:05:20.214Z,26.92
2022-10-28T06:07:48.145Z,27.83
2022-10-28T06:10:15.642Z,27.40
2022-10-28T06:12:42.080Z,26.98
2022-10-28T06:15:09.800Z,27.05
2022-10-28T06:17:37.654Z,26.73
2022-10-28T06:20:05.951Z,25.85
2022-10-28T06:22:33.809Z,31.67
2022-10-28T06:25:01.346Z,40.28
2022-10-28T06:27:31.250Z,29.27
2022-10-28T06:29:58.690Z,28.58
2022-10-28T06:32:26.526Z,27.67
2022-10-28T06:34:54.046Z,29.60
2022-10-28T06:37:21.820Z,29.45
2022-10-28T06:39:51.487Z,31.40
2022-10-28T06:42:19.700Z,28.40
2022-10-28T06:44:48.099Z,27.80
2022-10-28T06:47:17.356Z,28.20
2022-10-28T06:49:44.944Z,28.77
2022-10-28T06:52:12.716Z,30.25
2022-10-28T06:54:40.525Z,28.38
2022-10-28T06:57:08.268Z,30.52
2022-10-28T06:59:35.951Z,31.23
2022-10-28T07:02:04.819Z,30.08
2022-10-28T07:04:34.428Z,29.40
2022-10-28T07:07:01.988Z,28.17
2022-10-28T07:09:29.987Z,28.63
2022-10-28T07:12:00.873Z,28.38
2022-10-28T07:14:34.825Z,29.98
2022-10-28T07:17:02.662Z,29.52
2022-10-28T07:19:30.482Z,31.10
2022-10-28T07:21:57.994Z,31.75
2022-10-28T07:26:59.087Z,34.05
2022-10-28T07:29:26.887Z,32.83
2022-10-28T07:31:55.800Z,32.95
2022-10-28T07:34:27.089Z,31.70
2022-10-28T07:36:56.386Z,32.33
2022-10-28T07:39:24.512Z,33.65
2022-10-28T07:41:52.032Z,35.83
2022-10-28T07:44:19.753Z,36.03
2022-10-28T07:46:47.253Z,35.55
2022-10-28T07:49:15.046Z,35.08
2022-10-28T07:51:42.554Z,34.83
2022-10-28T07:54:10.509Z,37.70
2022-10-28T07:56:38.053Z,38.20
2022-10-28T07:59:05.732Z,42.45
2022-10-28T08:01:33.349Z,43.40
2022-10-28T08:04:01.076Z,45.20
2022-10-28T08:06:28.544Z,47.00
2022-10-28T08:08:57.225Z,47.92
2022-10-28T08:11:25.426Z,45.50
2022-10-28T08:13:55.357Z,43.58
2022-10-28T08:18:50.652Z,40.13
2022-10-28T08:21:18.194Z,41.88
2022-10-28T08:23:46.883Z,35.80
2022-10-28T08:26:16.494Z,36.13
2022-10-28T08:28:44.302Z,35.75
2022-10-28T08:31:14.883Z,33.22
2022-10-28T08:33:45.499Z,28.05
2022-10-28T08:36:16.417Z,28.85
2022-10-28T08:38:46.247Z,28.65
2022-10-28T08:44:32.846Z,28.40
2022-10-28T08:47:22.334Z,28.95
2022-10-28T08:50:00.417Z,27.52
2022-10-28T08:53:10.296Z,26.95
2022-10-28T08:55:44.575Z,31.10
2022-10-28T08:58:19.249Z,32.00
2022-10-28T09:00:57.251Z,33.50
2022-10-28T09:03:42.098Z,34.78
2022-10-28T09:06:11.502Z,37.42
2022-10-28T09:08:46.894Z,39.47
2022-10-28T09:11:45.388Z,40.35
2022-10-28T09:14:45.605Z,43.42
2022-10-28T09:17:25.431Z,42.97
2022-10-28T09:20:07.432Z,43.22
2022-10-28T09:22:49.188Z,43.05
2022-10-28T09:25:41.931Z,43.47
2022-10-28T09:28:30.721Z,41.28
2022-10-28T09:31:42.692Z,41.17
2022-10-28T09:34:43.691Z,40.03
2022-10-28T09:37:28.261Z,39.88
2022-10-28T09:40:01.453Z,36.85
2022-10-28T09:42:42.538Z,36.20
2022-10-28T09:45:23.343Z,33.22
2022-10-28T09:48:27.259Z,31.85
2022-10-28T09:50:57.509Z,35.47
2022-10-28T09:53:45.119Z,34.72
2022-10-28T09:56:12.885Z,36.20
2022-10-28T09:58:46.694Z,36.45
2022-10-28T10:01:17.963Z,35.20
2022-10-28T10:03:49.268Z,35.35
2022-10-28T10:06:37.364Z,37.42
2022-10-28T10:09:05.308Z,33.80
2022-10-28T10:11:46.861Z,34.70
2022-10-28T10:14:34.206Z,33.35
2022-10-28T10:17:23.058Z,36.10
2022-10-28T10:20:11.704Z,37.15
2022-10-28T10:22:45.276Z,36.22
2022-10-28T10:25:21.532Z,39.47
2022-10-28T10:27:59.405Z,39.40
2022-10-28T10:30:39.345Z,39.50
2022-10-28T10:33:19.694Z,37.00
2022-10-28T10:36:00.083Z,42.08
2022-10-28T10:38:29.397Z,43.53
2022-10-28T10:40:57.197Z,43.67
2022-10-28T10:43:35.882Z,45.83
2022-10-28T10:46:16.639Z,44.85
2022-10-28T10:48:45.190Z,44.90
2022-10-28T10:51:26.061Z,44.30
2022-10-28T10:54:01.945Z,45.63
2022-10-28T10:56:33.162Z,43.45
2022-10-28T10:59:05.992Z,44.05
2022-10-28T11:01:40.130Z,43.63
2022-10-28T11:04:15.751Z,47.42
2022-10-28T11:06:48.800Z,47.67
2022-10-28T11:09:30.479Z,46.10
2022-10-28T11:11:58.290Z,45.70
2022-10-28T11:14:33.017Z,42.53
2022-10-28T11:17:03.227Z,42.80
2022-10-28T11:19:32.248Z,42.78
2022-10-28T11:22:10.297Z,45.40
2022-10-28T11:25:19.424Z,44.20
2022-10-28T11:30:32.448Z,41.83
2022-10-28T11:33:29.604Z,44.08
2022-10-28T11:36:55.347Z,43.17
2022-10-28T11:39:50.700Z,38.83
2022-10-28T11:42:45.607Z,35.22
2022-10-28T11:45:29.848Z,29.50
2022-10-28T11:48:12.659Z,28.10
2022-10-28T11:51:07.854Z,26.98
2022-10-28T11:54:31.637Z,24.83
2022-10-28T11:57:24.049Z,27.70
2022-10-28T12:00:25.266Z,32.70
2022-10-28T12:03:29.952Z,28.60
2022-10-28T12:06:15.185Z,27.85
2022-10-28T12:12:24.474Z,25.05
2022-10-28T12:15:10.958Z,27.08
2022-10-28T12:18:05.996Z,25.55
2022-10-28T12:20:45.428Z,26.02
2022-10-28T12:23:21.006Z,24.65
2022-10-28T12:25:55.197Z,27.77
2022-10-28T12:28:33.667Z,25.88
2022-10-28T12:31:02.602Z,23.80
2022-10-28T12:33:39.485Z,24.77
2022-10-28T12:36:12.644Z,23.48
2022-10-28T12:39:02.049Z,19.08
2022-10-28T12:42:11.851Z,21.73
2022-10-28T12:44:40.819Z,22.48
2022-10-28T12:47:39.120Z,22.50
2022-10-28T12:50:32.395Z,23.00
2022-10-28T12:53:09.735Z,20.20
2022-10-28T12:55:48.713Z,21.73
2022-10-28T13:01:16.812Z,22.13
2022-10-28T13:03:44.718Z,21.88
2022-10-28T13:06:33.469Z,21.38
2022-10-28T13:09:33.354Z,18.35
2022-10-28T13:12:34.711Z,17.75
2022-10-28T13:15:35.338Z,18.48
2022-10-28T13:18:26.766Z,18.85
2022-10-28T13:21:33.453Z,17.00
2022-10-28T13:24:29.481Z,17.33
2022-10-28T13:26:57.542Z,17.77
2022-10-28T13:29:29.324Z,14.75
2022-10-28T13:31:57.163Z,16.08
2022-10-28T13:34:37.692Z,16.07
2022-10-28T13:37:16.644Z,21.85
2022-10-28T13:39:47.084Z,15.93
2022-10-28T13:42:23.448Z,17.27
2022-10-28T13:45:00.941Z,15.75
2022-10-28T13:47:33.676Z,13.45
2022-10-28T13:50:08.076Z,16.63
2022-10-28T13:52:38.645Z,15.65
2022-10-28T13:55:26.935Z,14.43
2022-10-28T13:58:04.554Z,12.35
2022-10-28T14:00:32.249Z,12.07
2022-10-28T14:03:17.422Z,10.40
2022-10-28T14:05:45.150Z,11.82
2022-10-28T14:08:24.832Z,11.18
2022-10-28T14:11:32.573Z,11.00
2022-10-28T14:14:03.836Z,10.45
2022-10-28T14:16:37.527Z,10.32
2022-10-28T14:19:11.691Z,9.90
2022-10-28T14:21:56.442Z,11.48
2022-10-28T14:24:42.472Z,10.05
2022-10-28T14:27:13.233Z,10.55
2022-10-28T14:30:25.106Z,10.27
2022-10-28T14:33:18.830Z,12.63
2022-10-28T14:35:48.065Z,12.38
2022-10-28T14:38:45.394Z,14.30
2022-10-28T14:41:50.774Z,16.42
2022-10-28T14:44:58.599Z,18.00
2022-10-28T14:48:08.746Z,17.65
2022-10-28T14:50:49.735Z,20.08
2022-10-28T14:53:32.116Z,20.08
2022-10-28T14:56:39.870Z,19.95
2022-10-28T14:59:32.148Z,19.58
2022-10-28T15:02:14.143Z,22.55
2022-10-28T15:04:44.855Z,23.13
2022-10-28T15:07:20.664Z,24.10
2022-10-28T15:09:53.558Z,23.88
2022-10-28T15:12:26.292Z,26.17
2022-10-28T15:14:57.212Z,25.08
2022-10-28T15:17:39.423Z,24.63
2022-10-28T15:20:24.942Z,25.60
2022-10-28T15:22:54.900Z,27.05
2022-10-28T15:25:23.539Z,26.88
2022-10-28T15:27:52.579Z,28.42
2022-10-28T15:30:26.802Z,27.65
2022-10-28T15:33:15.412Z,29.88
2022-10-28T15:35:43.086Z,28.43
2022-10-28T15:38:38.343Z,30.45
2022-10-28T15:41:25.730Z,30.55
2022-10-28T15:44:39.681Z,31.60
2022-10-28T15:47:34.907Z,32.20
2022-10-28T15:50:21.140Z,32.38
2022-10-28T15:52:57.144Z,34.00
2022-10-28T15:55:47.873Z,37.53
2022-10-28T15:58:20.148Z,35.28
2022-10-28T16:00:55.679Z,37.45
2022-10-28T16:03:39.783Z,40.00
2022-10-28T16:06:33.755Z,41.80
2022-10-28T16:09:09.980Z,38.67
2022-10-28T16:11:44.620Z,41.90
2022-10-28T16:14:40.315Z,42.80
2022-10-28T16:17:27.014Z,42.03
2022-10-28T16:20:01.462Z,43.17
2022-10-28T16:22:31.356Z,42.53
2022-10-28T16:27:31.169Z,48.78
2022-10-28T16:29:59.051Z,46.78
2022-10-28T16:32:40.018Z,46.35
2022-10-28T16:35:33.991Z,46.60
2022-10-28T16:38:01.884Z,43.67
2022-10-28T16:43:20.191Z,45.15
2022-10-28T16:45:49.645Z,45.30
2022-10-28T16:48:19.489Z,44.17
2022-10-28T16:51:03.018Z,37.53
2022-10-28T16:53:30.990Z,40.30
2022-10-28T16:56:01.586Z,38.72
2022-10-28T16:58:30.255Z,36.92
2022-10-28T17:00:59.641Z,35.67
2022-10-28T17:03:30.181Z,36.42
2022-10-28T17:05:57.714Z,35.58
2022-10-28T17:08:42.519Z,38.13
2022-10-28T17:11:16.672Z,37.45
2022-10-28T17:13:44.693Z,33.35
2022-10-28T17:16:13.220Z,34.00
2022-10-28T17:18:42.551Z,32.20
2022-10-28T17:21:10.219Z,31.92
2022-10-28T17:23:40.306Z,29.80
2022-10-28T17:26:07.810Z,29.38
2022-10-28T17:28:38.848Z,28.65
2022-10-28T17:31:08.912Z,26.92
2022-10-28T17:33:37.649Z,27.83
2022-10-28T17:36:08.613Z,26.70
2022-10-28T17:38:36.875Z,26.30
2022-10-28T17:41:04.438Z,25.90
2022-10-28T17:43:32.300Z,24.02
2022-10-28T17:46:07.648Z,23.55
2022-10-28T17:48:43.357Z,23.80
2022-10-28T17:51:11.103Z,25.58
2022-10-28T17:53:38.965Z,26.17
2022-10-28T17:56:07.741Z,26.42
2022-10-28T18:01:08.200Z,24.70
2022-10-28T18:03:38.964Z,23.55
2022-10-28T18:06:13.045Z,23.60
2022-10-28T18:08:43.662Z,24.58
2022-10-28T18:11:14.221Z,22.88
2022-10-28T18:13:45.147Z,22.85
2022-10-28T18:16:17.018Z,24.40
2022-10-28T18:18:45.169Z,23.77
2022-10-28T18:21:14.293Z,23.33
2022-10-28T18:23:42.951Z,22.92
2022-10-28T18:26:15.826Z,23.02
2022-10-28T18:28:45.941Z,22.45
2022-10-28T18:31:17.152Z,22.83
2022-10-28T18:33:47.526Z,21.27
2022-10-28T18:36:18.518Z,23.60
2022-10-28T18:38:46.971Z,23.13
2022-10-28T18:41:23.793Z,22.63
2022-10-28T18:43:56.839Z,24.15
2022-10-28T18:46:25.663Z,22.48
2022-10-28T18:48:53.805Z,22.48
2022-10-28T18:51:21.377Z,23.45
2022-10-28T18:53:50.284Z,22.63
2022-10-28T18:56:24.537Z,24.83
2022-10-28T18:58:52.615Z,22.85
2022-10-28T19:01:26.364Z,21.40
2022-10-28T19:04:04.055Z,21.95
2022-10-28T19:06:33.690Z,21.10
2022-10-28T19:09:05.147Z,19.88
2022-10-28T19:11:34.556Z,21.13
2022-10-28T19:14:06.098Z,21.73
2022-10-28T19:16:36.458Z,22.08
2022-10-28T19:19:05.692Z,22.17
2022-10-28T19:21:34.224Z,22.20
2022-10-28T19:24:01.950Z,21.35
2022-10-28T19:26:32.014Z,22.45
2022-10-28T19:29:00.143Z,22.55
2022-10-28T19:31:28.471Z,21.23
2022-10-28T19:33:56.093Z,21.73
2022-10-28T19:36:27.267Z,22.50
2022-10-28T19:38:56.641Z,22.40
2022-10-28T19:41:30.263Z,24.17
2022-10-28T19:44:01.264Z,25.20
2022-10-28T19:46:33.989Z,23.75
2022-10-28T19:49:05.742Z,22.63
2022-10-28T19:51:40.289Z,24.08
2022-10-28T19:54:14.973Z,25.65
2022-10-28T19:56:44.561Z,22.58
2022-10-28T20:01:41.116Z,21.85
2022-10-28T20:04:10.221Z,24.30
2022-10-28T20:06:40.800Z,23.30
2022-10-28T20:09:08.698Z,24.85
2022-10-28T20:11:38.960Z,24.52
2022-10-28T20:14:11.662Z,24.40
2022-10-28T20:16:43.827Z,25.50
2022-10-28T20:19:12.009Z,27.25
2022-10-28T20:21:40.188Z,26.67
2022-10-28T20:24:08.838Z,24.50
2022-10-28T20:26:38.908Z,28.30
2022-10-28T20:29:15.622Z,28.05
2022-10-28T20:31:43.604Z,28.02
2022-10-28T20:34:11.125Z,25.75
2022-10-28T20:36:46.241Z,24.90
2022-10-28T20:39:27.258Z,25.58
2022-10-28T20:42:10.590Z,25.23
2022-10-28T20:44:49.639Z,25.23
2022-10-28T20:47:25.365Z,25.38
2022-10-28T20:50:02.821Z,25.75
2022-10-28T20:52:35.878Z,26.80
2022-10-28T20:55:06.195Z,25.83
2022-10-28T21:00:04.740Z,24.38
2022-10-28T21:02:37.717Z,26.80
2022-10-28T21:05:07.240Z,27.15
2022-10-28T21:07:36.240Z,33.63
2022-10-28T21:10:05.363Z,33.00
2022-10-28T21:15:02.341Z,37.65
2022-10-28T21:17:31.086Z,35.08
2022-10-28T21:22:34.772Z,37.63
2022-10-28T21:25:03.444Z,39.58
2022-10-28T21:27:32.540Z,37.55
2022-10-28T21:30:01.577Z,36.30
2022-10-28T21:32:31.920Z,36.90
2022-10-28T21:35:01.076Z,33.15
2022-10-28T21:40:00.911Z,31.38
2022-10-28T21:42:29.679Z,29.88
2022-10-28T21:44:57.844Z,32.42
2022-10-28T21:47:27.544Z,32.03
2022-10-28T21:49:55.240Z,33.17
2022-10-28T21:52:22.915Z,31.40
2022-10-28T21:54:50.346Z,34.25
2022-10-28T21:57:18.767Z,36.28
2022-10-28T21:59:49.544Z,33.17
2022-10-28T22:02:17.246Z,34.00
2022-10-28T22:04:45.054Z,33.90
2022-10-28T22:07:17.479Z,34.72
2022-10-28T22:09:54.180Z,30.30
2022-10-28T22:12:26.824Z,33.45
2022-10-28T22:14:54.685Z,32.38
2022-10-28T22:17:22.377Z,31.90
2022-10-28T22:19:52.373Z,32.70
2022-10-28T22:22:22.596Z,31.98
2022-10-28T22:24:58.371Z,32.60
2022-10-28T22:27:32.697Z,30.67
2022-10-28T22:30:09.738Z,32.90
2022-10-28T22:38:34.475Z,30.48
2022-10-28T22:41:23.914Z,31.17
2022-10-28T22:44:05.609Z,29.27
2022-10-28T22:46:55.298Z,30.75
2022-10-28T22:49:26.343Z,32.25
2022-10-28T22:51:54.422Z,31.80
2022-10-28T22:54:21.896Z,32.33
2022-10-28T22:56:49.586Z,30.70
2022-10-28T22:59:17.120Z,30.98
2022-10-28T23:01:44.618Z,28.75
2022-10-28T23:04:12.596Z,28.23
2022-10-28T23:06:40.237Z,30.65
2022-10-28T23:09:07.707Z,32.92
2022-10-28T23:11:35.460Z,30.38
2022-10-28T23:14:02.891Z,32.08
2022-10-28T23:16:30.646Z,32.72
2022-10-28T23:19:01.138Z,32.13
2022-10-28T23:21:28.987Z,31.80
2022-10-28T23:23:59.801Z,30.30
2022-10-28T23:26:29.569Z,31.13
2022-10-28T23:28:59.877Z,31.80
2022-10-28T23:31:28.330Z,31.17
2022-10-28T23:33:55.901Z,30.00
2022-10-28T23:36:23.624Z,30.15
2022-10-28T23:38:52.501Z,30.63
2022-10-28T23:41:21.071Z,32.30
2022-10-28T23:43:49.455Z,31.67
2022-10-28T23:46:18.126Z,33.00
2022-10-28T23:48:45.703Z,31.88
2022-10-28T23:51:14.114Z,33.92
2022-10-28T23:53:41.915Z,33.97
2022-10-28T23:56:09.422Z,34.72
2022-10-28T23:58:36.914Z,34.88
